Time;durP1;ratioP1;P1;durP2;ratioP2;P2;SDS_P1;SDS_P2;PMS_P1;PMS_P2;Temp;Humidity;BMP_temperature;BMP_pressure;BME280_temperature;BME280_humidity;BME280_pressure;Samples;Min_cycle;Max_cycle;Signal;HPM_P1;HPM_P2
2022/07/19 06:44:06;;;;;;;7.40;6.60;;;33.20;99.90;;;;;;2204457;23;20302;-92
2022/07/19 06:46:33;;;;;;;8.25;5.57;;;34.20;99.90;;;;;;4893822;29;20058;-93
2022/07/19 06:48:59;;;;;;;6.65;4.82;;;34.60;99.90;;;;;;4892921;29;20040;-92
2022/07/19 06:51:25;;;;;;;10.02;4.68;;;33.80;99.90;;;;;;4888517;29;20037;-92
2022/07/19 06:53:52;;;;;;;5.90;4.07;;;33.00;99.90;;;;;;4895949;29;20033;-93
2022/07/19 07:03:03;;;;;;;8.98;4.63;;;33.80;99.90;;;;;;4932280;29;20072;-92
2022/07/19 07:05:34;;;;;;;11.18;6.07;;;33.90;99.90;;;;;;4933240;29;20064;-94
2022/07/19 07:08:01;;;;;;;6.80;6.07;;;33.50;99.90;;;;;;4915465;29;20028;-92
2022/07/19 07:10:31;;;;;;;9.95;4.78;;;33.40;99.90;;;;;;4945098;29;20024;-92
2022/07/19 07:12:58;;;;;;;11.63;5.43;;;33.30;99.90;;;;;;4937345;29;20048;-92
2022/07/19 07:15:29;;;;;;;9.07;5.80;;;33.50;99.90;;;;;;4936914;29;20044;-92
2022/07/19 07:17:55;;;;;;;7.90;6.22;;;34.00;99.90;;;;;;4905838;29;20115;-92
2022/07/19 07:20:24;;;;;;;13.07;6.20;;;34.20;99.90;;;;;;4916603;29;20063;-94
2022/07/19 07:23:19;;;;;;;9.90;7.20;;;34.70;99.90;;;;;;4906943;29;20101;-93
2022/07/19 07:25:50;;;;;;;8.63;6.90;;;35.00;99.90;;;;;;4922049;29;20063;-94
2022/07/19 07:28:36;;;;;;;9.10;8.18;;;35.00;99.90;;;;;;4966777;23;20849;-93
2022/07/19 07:31:09;;;;;;;9.20;5.80;;;34.90;99.90;;;;;;4991280;28;20102;-94
2022/07/19 07:33:36;;;;;;;8.70;5.97;;;35.00;99.90;;;;;;4978867;28;20038;-94
2022/07/19 07:36:02;;;;;;;8.82;6.80;;;34.40;99.90;;;;;;4976872;28;20027;-94
2022/07/19 07:38:29;;;;;;;9.85;7.65;;;34.30;99.90;;;;;;4950814;28;20027;-94
2022/07/19 07:40:56;;;;;;;11.48;6.57;;;34.70;99.90;;;;;;4951665;28;20491;-92
2022/07/19 07:43:22;;;;;;;9.25;7.55;;;34.70;99.90;;;;;;4945430;28;20054;-92
2022/07/19 07:45:49;;;;;;;10.27;8.13;;;34.90;99.90;;;;;;4965528;28;20056;-91
2022/07/19 07:48:16;;;;;;;14.52;9.75;;;34.80;99.90;;;;;;4964992;28;20365;-94
2022/07/19 07:50:42;;;;;;;12.48;8.63;;;34.90;99.90;;;;;;4948809;28;20030;-94
2022/07/19 07:53:09;;;;;;;15.88;9.50;;;35.20;99.90;;;;;;4948816;28;20034;-93
2022/07/19 07:55:39;;;;;;;10.00;9.25;;;34.80;99.90;;;;;;4946950;28;20026;-92
2022/07/19 07:58:10;;;;;;;12.55;9.82;;;34.70;99.90;;;;;;4970016;28;20031;-93
2022/07/19 09:14:38;;;;;;;12.95;11.88;;;32.70;99.90;;;;;;5545113;23;20043;-92
2022/07/19 09:17:39;;;;;;;;;;;;;;;;;;;;;
2022/07/19 09:20:28;;;;;;;13.82;12.88;;;32.80;99.90;;;;;;5002503;28;20117;-93
2022/07/19 09:23:51;;;;;;;;;;;;;;;;;;;;;
2022/07/19 09:31:22;;;;;;;13.45;12.20;;;32.80;99.90;;;;;;4885755;29;20044;-94
2022/07/19 09:38:09;;;;;;;13.40;12.35;;;32.20;99.90;;;;;;4826907;29;20054;-93
2022/07/19 09:40:45;;;;;;;13.32;12.23;;;32.40;99.90;;;;;;4793490;29;20051;-93
2022/07/19 09:43:22;;;;;;;14.52;13.38;;;32.70;99.90;;;;;;4793658;30;20035;-93
2022/07/19 09:45:52;;;;;;;14.00;12.70;;;32.80;99.90;;;;;;4822133;29;20079;-93
2022/07/19 09:48:21;;;;;;;13.48;12.30;;;32.60;99.90;;;;;;4812577;29;20042;-94
2022/07/19 09:51:16;;;;;;;13.77;12.88;;;32.50;99.90;;;;;;4791935;30;20067;-94
2022/07/19 09:53:49;;;;;;;13.35;12.35;;;31.90;99.90;;;;;;4777337;30;20051;-93
2022/07/19 09:56:25;;;;;;;11.98;11.27;;;31.60;99.90;;;;;;4790954;30;20456;-93
2022/07/19 10:18:27;;;;;;;12.70;11.65;;;32.50;99.90;;;;;;5742630;23;21468;31
2022/07/19 11:04:29;;;;;;;12.73;11.70;;;32.40;99.90;;;;;;5480430;23;20376;-94
2022/07/19 11:07:18;;;;;;;13.30;12.13;;;33.10;99.90;;;;;;4928459;29;20032;-92
2022/07/19 11:09:45;;;;;;;12.85;12.00;;;33.10;99.90;;;;;;4942247;29;20035;-93
2022/07/19 11:12:53;;;;;;;12.82;12.10;;;33.40;99.90;;;;;;4929006;28;20026;-93
2022/07/19 11:15:31;;;;;;;12.90;11.90;;;33.70;99.90;;;;;;4890080;29;20040;-93
2022/07/19 11:23:22;;;;;;;13.25;12.18;;;32.90;99.90;;;;;;4984288;28;20047;-91
2022/07/19 11:25:50;;;;;;;12.88;11.88;;;33.40;99.90;;;;;;4945528;28;20037;-92
2022/07/19 11:35:58;;;;;;;12.77;11.98;;;32.80;99.90;;;;;;4959331;23;20109;-94
2022/07/19 11:38:37;;;;;;;12.63;11.73;;;33.20;99.90;;;;;;4975007;28;20026;-93
2022/07/19 11:41:07;;;;;;;13.43;12.57;;;33.70;99.90;;;;;;4975717;28;20114;-95
2022/07/19 11:43:35;;;;;;;13.05;12.15;;;34.20;99.90;;;;;;4973115;28;20031;-94
2022/07/19 11:46:02;;;;;;;13.18;12.27;;;34.20;99.90;;;;;;4972485;28;20039;-93
2022/07/19 11:48:34;;;;;;;13.30;12.32;;;34.30;99.90;;;;;;4956041;28;20047;-94
2022/07/19 11:51:10;;;;;;;13.05;12.35;;;33.80;99.90;;;;;;4974419;28;20057;-94
2022/07/19 11:53:39;;;;;;;13.45;12.63;;;33.70;99.90;;;;;;4950931;28;20041;-94
2022/07/19 11:56:16;;;;;;;13.30;12.48;;;33.00;99.90;;;;;;4950229;28;20031;-93
2022/07/19 11:58:44;;;;;;;12.35;11.65;;;32.90;99.90;;;;;;4944938;28;20034;-93
2022/07/19 12:01:10;;;;;;;12.88;12.07;;;32.60;99.90;;;;;;4945358;28;20480;-92
2022/07/19 12:03:39;;;;;;;12.73;11.77;;;32.70;99.90;;;;;;4947107;28;20227;-93
2022/07/19 12:06:08;;;;;;;13.55;12.48;;;32.90;99.90;;;;;;4961728;28;20039;-93
2022/07/19 12:08:43;;;;;;;14.00;12.88;;;33.10;99.90;;;;;;4946560;28;20085;-94
2022/07/19 12:11:24;;;;;;;13.07;12.27;;;32.90;99.90;;;;;;4946189;28;20055;-92
2022/07/19 12:13:52;;;;;;;12.77;11.98;;;32.70;99.90;;;;;;4945669;28;20109;-93
2022/07/19 12:16:19;;;;;;;13.20;12.35;;;32.60;99.90;;;;;;4943667;29;20043;-93
2022/07/19 12:18:48;;;;;;;13.10;12.27;;;32.50;99.90;;;;;;4941621;29;20514;-92
2022/07/19 12:34:57;;;;;;;12.82;12.13;;;33.00;99.90;;;;;;5482539;23;20047;-93
2022/07/19 12:38:04;;;;;;;12.80;11.88;;;33.20;99.90;;;;;;4949720;28;20031;-92
2022/07/19 12:40:30;;;;;;;13.18;12.07;;;33.20;99.90;;;;;;4944691;28;20043;-92
2022/07/19 12:42:59;;;;;;;13.93;12.93;;;33.00;99.90;;;;;;4947384;28;20031;-92
2022/07/19 12:45:28;;;;;;;13.45;12.40;;;32.50;99.90;;;;;;4942493;29;20035;-92
2022/07/19 12:47:55;;;;;;;13.80;12.80;;;32.70;99.90;;;;;;4944051;29;20024;-94
2022/07/19 12:50:33;;;;;;;13.68;12.77;;;32.40;99.90;;;;;;4942986;29;20031;-92
2022/07/19 12:53:03;;;;;;;13.90;12.90;;;32.70;99.90;;;;;;4945134;29;20035;-93
2022/07/19 12:55:31;;;;;;;13.90;12.90;;;32.80;99.90;;;;;;4944402;29;20030;-91
2022/07/19 12:58:11;;;;;;;13.10;12.20;;;33.20;99.90;;;;;;4945810;29;20031;-93
2022/07/19 13:00:42;;;;;;;13.32;12.52;;;33.40;99.90;;;;;;4963798;29;20046;-92
2022/07/19 13:03:08;;;;;;;13.68;12.57;;;33.00;99.90;;;;;;4946103;29;20051;-94
2022/07/19 13:05:35;;;;;;;13.73;12.90;;;32.90;99.90;;;;;;4949251;29;20035;-95
2022/07/19 13:08:08;;;;;;;14.02;12.73;;;33.30;99.90;;;;;;4945161;29;20032;-93
2022/07/19 13:10:35;;;;;;;13.40;12.40;;;33.30;99.90;;;;;;4959593;29;20039;-94
2022/07/19 13:13:01;;;;;;;13.98;13.07;;;33.30;99.90;;;;;;4960896;29;20050;-93
2022/07/19 13:15:28;;;;;;;14.40;13.30;;;33.00;99.90;;;;;;4940962;29;20114;-95
2022/07/19 13:17:54;;;;;;;13.95;13.05;;;32.80;99.90;;;;;;4947348;29;20110;-94
2022/07/19 13:20:22;;;;;;;13.85;12.55;;;32.80;99.90;;;;;;4956745;29;20043;-95
2022/07/19 13:22:53;;;;;;;14.85;13.52;;;32.60;99.90;;;;;;4975407;29;20075;-94
2022/07/19 13:28:37;;;;;;;14.02;13.05;;;33.00;99.90;;;;;;4993511;28;20137;-93
2022/07/19 13:31:07;;;;;;;13.98;12.98;;;32.90;99.90;;;;;;4932409;29;20046;-92
2022/07/19 14:26:36;;;;;;;14.50;13.55;;;33.70;99.90;;;;;;4972185;28;20061;-93
2022/07/19 14:29:04;;;;;;;14.35;13.20;;;33.70;99.90;;;;;;4969745;28;20098;-92
2022/07/19 14:31:31;;;;;;;14.35;13.45;;;33.60;99.90;;;;;;4970333;28;20031;-93
2022/07/19 14:33:58;;;;;;;15.02;13.80;;;33.90;99.90;;;;;;4962286;28;20027;-93
2022/07/19 14:36:42;;;;;;;15.23;14.05;;;33.70;99.90;;;;;;4961601;28;20475;-93
2022/07/19 14:39:10;;;;;;;14.85;13.85;;;33.70;99.90;;;;;;4961299;28;20042;-93
2022/07/19 14:41:38;;;;;;;15.73;14.52;;;33.70;99.90;;;;;;4961732;28;20023;-93
2022/07/19 14:44:05;;;;;;;16.67;15.38;;;33.70;99.90;;;;;;4961283;28;20034;-93
2022/07/19 14:46:31;;;;;;;16.58;15.18;;;33.30;99.90;;;;;;4961480;28;20022;-93
2022/07/19 14:48:58;;;;;;;16.67;15.30;;;33.20;99.90;;;;;;4961300;28;20061;-93
2022/07/19 14:51:25;;;;;;;16.98;15.60;;;32.90;99.90;;;;;;4961476;28;20124;-93
2022/07/19 14:53:51;;;;;;;16.83;15.30;;;32.90;99.90;;;;;;4965110;28;20034;-94
2022/07/19 14:56:18;;;;;;;16.33;15.18;;;32.70;99.90;;;;;;4965268;28;20022;-93
2022/07/19 14:58:45;;;;;;;16.83;15.45;;;32.70;99.90;;;;;;4965035;28;20038;-93
2022/07/19 15:01:12;;;;;;;17.83;15.20;;;32.80;99.90;;;;;;4965082;28;20023;-92
2022/07/19 15:03:38;;;;;;;16.55;14.88;;;32.80;99.90;;;;;;4964832;28;20026;-93
2022/07/19 15:06:05;;;;;;;16.40;15.07;;;32.50;99.90;;;;;;4965012;28;20037;-93
2022/07/19 15:08:32;;;;;;;15.40;14.23;;;32.50;99.90;;;;;;4965246;28;20138;-94
2022/07/19 15:10:59;;;;;;;14.95;13.77;;;32.40;99.90;;;;;;4965921;28;20086;-93
2022/07/19 15:13:25;;;;;;;13.45;12.65;;;32.50;99.90;;;;;;4964961;28;20073;-94
2022/07/19 15:15:52;;;;;;;13.77;12.80;;;32.50;99.90;;;;;;4967771;28;20030;-93
2022/07/19 15:18:19;;;;;;;14.07;13.18;;;32.40;99.90;;;;;;4966438;28;20049;-93
2022/07/19 15:20:46;;;;;;;13.48;12.68;;;32.00;99.90;;;;;;4964810;28;20046;-93
2022/07/19 15:23:13;;;;;;;14.45;13.35;;;31.80;99.90;;;;;;4964784;28;20026;-92
2022/07/19 15:25:39;;;;;;;13.48;12.60;;;31.70;99.90;;;;;;4966046;28;20038;-94
2022/07/19 15:28:06;;;;;;;13.95;12.85;;;31.50;99.90;;;;;;4948222;28;20500;-93
2022/07/19 15:30:33;;;;;;;14.15;13.10;;;31.70;99.90;;;;;;4942835;29;20031;-92
2022/07/19 15:32:59;;;;;;;13.63;12.68;;;31.60;99.90;;;;;;4958406;29;20405;-93
2022/07/19 15:35:26;;;;;;;13.95;12.90;;;31.80;99.90;;;;;;4926539;29;20049;-94
2022/07/19 15:37:52;;;;;;;13.18;12.18;;;32.00;99.90;;;;;;4941780;29;20042;-93
2022/07/19 15:40:19;;;;;;;14.23;13.13;;;32.10;99.90;;;;;;4941908;29;20035;-95
2022/07/19 15:43:06;;;;;;;14.32;13.40;;;32.00;99.90;;;;;;4957904;28;20043;-93
2022/07/19 15:45:33;;;;;;;13.93;13.02;;;32.00;99.90;;;;;;4940965;29;20031;-93
2022/07/19 15:48:00;;;;;;;13.40;12.32;;;32.10;99.90;;;;;;4928217;29;20035;-92
2022/07/19 15:50:30;;;;;;;13.45;12.30;;;32.00;99.90;;;;;;4959916;28;20027;-93
2022/07/19 15:52:57;;;;;;;13.43;12.23;;;31.80;99.90;;;;;;4942412;29;20023;-92
2022/07/19 15:55:25;;;;;;;12.05;11.25;;;31.80;99.90;;;;;;4926952;29;20468;-91
2022/07/19 15:58:10;;;;;;;11.27;10.55;;;31.50;99.90;;;;;;4926846;29;20034;-92
2022/07/19 16:00:37;;;;;;;10.75;10.05;;;31.10;99.90;;;;;;4961563;28;20441;-93
2022/07/19 16:03:04;;;;;;;11.07;10.18;;;31.20;99.90;;;;;;4943348;29;20445;-92
2022/07/19 16:05:30;;;;;;;11.27;9.98;;;31.10;99.90;;;;;;4958613;29;20067;-92
2022/07/19 16:07:57;;;;;;;10.63;9.55;;;31.00;99.90;;;;;;4941589;29;20023;-92
2022/07/19 16:10:24;;;;;;;10.27;9.40;;;31.10;99.90;;;;;;4941060;29;20567;-92
2022/07/19 16:12:51;;;;;;;10.40;9.52;;;31.10;99.90;;;;;;4925372;29;20027;-92
2022/07/19 16:15:18;;;;;;;9.00;8.48;;;31.00;99.90;;;;;;4940813;29;20062;-92
2022/07/19 16:17:47;;;;;;;8.77;7.88;;;30.90;99.90;;;;;;4925530;29;20513;-92
2022/07/19 16:20:15;;;;;;;19.08;8.10;;;30.80;99.90;;;;;;4925279;29;20492;-93
2022/07/19 16:22:44;;;;;;;9.27;7.93;;;30.70;99.90;;;;;;4924976;29;20023;-92
2022/07/19 16:25:11;;;;;;;8.20;7.40;;;30.60;99.90;;;;;;4925042;29;20034;-93
2022/07/19 16:27:38;;;;;;;10.85;8.05;;;30.60;99.90;;;;;;4940777;28;20070;-92
2022/07/19 16:30:06;;;;;;;8.40;7.70;;;30.60;99.90;;;;;;4940850;29;20102;-92
2022/07/19 16:32:34;;;;;;;8.27;7.57;;;30.50;99.90;;;;;;4956612;28;20038;-92
2022/07/19 16:35:02;;;;;;;8.35;7.60;;;30.30;99.90;;;;;;4925046;29;20523;-93
2022/07/19 16:37:29;;;;;;;7.43;6.60;;;30.50;99.90;;;;;;4924744;29;20027;-93
2022/07/19 16:39:55;;;;;;;7.15;6.45;;;30.40;99.90;;;;;;4924974;29;20039;-91
2022/07/19 16:42:22;;;;;;;6.95;5.80;;;30.20;99.90;;;;;;4941496;29;20054;-92
2022/07/19 16:44:51;;;;;;;6.30;5.70;;;30.20;99.90;;;;;;4924495;29;20034;-93
2022/07/19 16:47:18;;;;;;;7.50;5.13;;;30.00;99.90;;;;;;4940460;29;20099;-92
2022/07/19 16:49:44;;;;;;;9.50;5.45;;;29.90;99.90;;;;;;4940578;29;20082;-93
2022/07/19 16:52:12;;;;;;;9.02;5.35;;;29.80;99.90;;;;;;4923432;29;20032;-92
2022/07/19 16:54:39;;;;;;;6.45;5.32;;;29.70;99.90;;;;;;4921633;29;20031;-92
2022/07/19 16:57:06;;;;;;;6.70;5.63;;;29.80;99.90;;;;;;4921827;29;20067;-95
2022/07/19 16:59:34;;;;;;;10.02;5.47;;;29.70;99.90;;;;;;4921280;29;20067;-92
2022/07/19 17:02:00;;;;;;;7.72;5.57;;;29.70;99.90;;;;;;4936989;29;20507;-92
2022/07/19 17:04:30;;;;;;;12.38;5.55;;;29.60;99.90;;;;;;4940413;29;20055;-93
2022/07/19 17:07:00;;;;;;;11.10;5.60;;;29.60;99.90;;;;;;4940410;29;20027;-94
2022/07/19 17:09:26;;;;;;;6.80;5.72;;;29.70;99.90;;;;;;4940497;29;20488;-93
2022/07/19 17:11:55;;;;;;;9.05;5.57;;;29.70;99.90;;;;;;4940230;29;20065;-93
2022/07/19 17:14:22;;;;;;;6.72;5.22;;;29.60;99.90;;;;;;4939693;29;20031;-93
2022/07/19 17:16:49;;;;;;;7.78;5.45;;;29.40;99.90;;;;;;4940147;29;20031;-93
2022/07/19 17:19:16;;;;;;;10.07;5.90;;;29.30;99.90;;;;;;4940237;29;20032;-93
2022/07/19 17:21:46;;;;;;;7.95;5.35;;;29.10;99.90;;;;;;4940021;28;20042;-94
2022/07/19 17:24:12;;;;;;;12.30;6.10;;;29.00;99.90;;;;;;4940832;29;20122;-92
2022/07/19 17:26:39;;;;;;;8.25;5.45;;;29.00;99.90;;;;;;4942836;28;20039;-93
2022/07/19 17:29:06;;;;;;;7.32;5.80;;;28.90;99.90;;;;;;4962267;28;20022;-92
2022/07/19 17:31:33;;;;;;;8.35;6.47;;;28.80;99.90;;;;;;4962416;28;20038;-92
2022/07/19 17:34:03;;;;;;;11.88;5.40;;;28.80;99.90;;;;;;4962383;28;20476;-93
2022/07/19 17:36:29;;;;;;;6.63;5.30;;;28.70;99.90;;;;;;4971322;28;20030;-91
2022/07/19 17:38:56;;;;;;;7.47;5.70;;;28.60;99.90;;;;;;4957156;28;20037;-94
2022/07/19 17:41:25;;;;;;;11.70;6.45;;;28.50;99.90;;;;;;4957562;28;20562;-93
2022/07/19 17:43:52;;;;;;;10.23;6.00;;;28.50;99.90;;;;;;4951141;28;20563;-94
2022/07/19 17:46:18;;;;;;;10.82;6.60;;;28.30;99.90;;;;;;4956078;28;20380;-92
2022/07/19 17:48:44;;;;;;;6.70;5.70;;;28.20;99.90;;;;;;4943623;28;20023;-94
2022/07/19 17:51:11;;;;;;;7.10;5.45;;;28.10;99.90;;;;;;4942762;28;20026;-94
2022/07/19 17:53:37;;;;;;;6.30;5.25;;;28.00;99.90;;;;;;4952689;28;20476;-95
2022/07/19 17:56:05;;;;;;;6.40;5.80;;;27.90;99.90;;;;;;4942688;28;20038;-95
2022/07/19 17:58:35;;;;;;;8.30;5.30;;;27.90;99.90;;;;;;4942656;28;20081;-94
2022/07/19 18:01:01;;;;;;;8.43;5.47;;;27.80;99.90;;;;;;4943633;28;20134;-94
2022/07/19 18:03:34;;;;;;;8.10;5.40;;;27.80;99.90;;;;;;4959669;28;20027;-94
2022/07/19 18:06:01;;;;;;;8.57;5.57;;;27.70;99.90;;;;;;4943073;28;20039;-95
2022/07/19 18:08:28;;;;;;;6.65;5.75;;;27.70;99.90;;;;;;4943233;28;20027;-92
2022/07/19 18:10:54;;;;;;;8.90;5.82;;;27.70;99.90;;;;;;4943537;28;20548;-94
2022/07/19 18:13:21;;;;;;;13.13;6.43;;;27.70;99.90;;;;;;4942464;28;20369;-93
2022/07/19 18:15:48;;;;;;;9.02;5.97;;;27.60;99.90;;;;;;4943287;28;20042;-92
2022/07/19 18:18:14;;;;;;;9.13;5.95;;;27.50;99.90;;;;;;4943378;28;20379;-93
2022/07/19 18:20:41;;;;;;;7.78;5.82;;;27.40;99.90;;;;;;4942877;28;20054;-93
2022/07/19 18:23:07;;;;;;;10.63;6.40;;;27.30;99.90;;;;;;4942301;28;20027;-94
2022/07/19 18:25:34;;;;;;;10.25;6.63;;;27.10;99.90;;;;;;4942871;28;20464;-93
2022/07/19 18:28:00;;;;;;;9.90;6.20;;;27.10;99.90;;;;;;4942384;28;20071;-92
2022/07/19 18:30:27;;;;;;;8.93;5.50;;;27.00;99.90;;;;;;4945370;28;20038;-93
2022/07/19 18:32:53;;;;;;;9.00;5.90;;;26.90;99.90;;;;;;4943979;28;20399;-93
2022/07/19 18:35:20;;;;;;;8.25;5.68;;;26.80;99.90;;;;;;4942269;28;20089;-95
2022/07/19 18:37:51;;;;;;;7.75;5.47;;;26.70;99.90;;;;;;4960507;23;20050;-93
2022/07/19 18:40:17;;;;;;;9.02;5.65;;;26.70;99.90;;;;;;4959636;28;20043;-92
2022/07/19 18:42:44;;;;;;;8.48;5.13;;;26.60;99.90;;;;;;4959485;28;20156;-92
2022/07/19 18:45:11;;;;;;;7.55;5.43;;;26.50;99.90;;;;;;4955358;29;20031;-92
2022/07/19 18:47:37;;;;;;;7.32;5.28;;;26.40;99.90;;;;;;4955546;29;20024;-92
2022/07/19 18:50:04;;;;;;;7.30;5.38;;;26.40;99.90;;;;;;4971446;28;20035;-92
2022/07/19 18:52:31;;;;;;;6.60;4.70;;;26.30;99.90;;;;;;4955386;29;20051;-93
2022/07/19 18:55:00;;;;;;;13.65;5.25;;;26.20;99.90;;;;;;4955682;29;20086;-92
2022/07/19 18:57:27;;;;;;;6.00;5.10;;;26.10;99.90;;;;;;4955637;29;20067;-93
2022/07/19 18:59:56;;;;;;;6.35;5.00;;;26.10;99.90;;;;;;4954968;29;20413;-93
2022/07/19 19:02:23;;;;;;;4.97;4.47;;;25.90;99.90;;;;;;4960425;29;20062;-93
2022/07/19 19:04:52;;;;;;;6.95;4.90;;;25.80;99.90;;;;;;4998779;23;20051;-93
2022/07/19 19:07:20;;;;;;;8.45;4.90;;;25.70;99.90;;;;;;4959337;28;20056;-94
2022/07/19 19:09:47;;;;;;;9.35;4.88;;;25.70;99.90;;;;;;4958686;28;20046;-92
2022/07/19 19:12:15;;;;;;;7.00;4.60;;;25.60;99.90;;;;;;4959378;28;20031;-92
2022/07/19 19:14:42;;;;;;;7.60;5.25;;;25.60;99.90;;;;;;4957792;28;20023;-93
2022/07/19 19:17:08;;;;;;;10.32;4.90;;;25.70;99.90;;;;;;4958284;28;20070;-94
2022/07/19 19:19:54;;;;;;;7.57;4.60;;;25.70;99.90;;;;;;4957896;28;20030;-95
2022/07/19 19:22:21;;;;;;;7.63;5.18;;;25.60;99.90;;;;;;4957837;28;20031;-94
2022/07/19 19:24:50;;;;;;;8.00;4.72;;;25.50;99.90;;;;;;4958177;28;20144;-92
2022/07/19 19:27:17;;;;;;;5.80;5.05;;;25.50;99.90;;;;;;4958290;28;20027;-92
2022/07/19 19:29:43;;;;;;;7.82;4.95;;;25.50;99.90;;;;;;4957884;28;20022;-93
2022/07/19 19:32:10;;;;;;;12.05;5.18;;;25.40;99.90;;;;;;4957848;28;20027;-92
2022/07/19 19:34:37;;;;;;;8.73;5.82;;;25.50;99.90;;;;;;4957966;28;20038;-94
2022/07/19 19:37:03;;;;;;;11.02;6.70;;;25.50;99.90;;;;;;4958652;28;20042;-93
2022/07/19 19:39:30;;;;;;;10.77;6.22;;;25.40;99.90;;;;;;4961222;28;20034;-92
2022/07/19 19:41:57;;;;;;;10.15;6.00;;;25.30;99.90;;;;;;4959082;28;20031;-92
2022/07/19 19:44:27;;;;;;;8.93;6.38;;;25.20;99.90;;;;;;4961324;28;20030;-93
2022/07/19 19:46:53;;;;;;;10.32;6.78;;;25.20;99.90;;;;;;4961287;28;20051;-92
2022/07/19 19:49:22;;;;;;;10.55;6.55;;;25.20;99.90;;;;;;4962801;28;20023;-93
2022/07/19 19:51:48;;;;;;;10.20;6.63;;;25.20;99.90;;;;;;4963489;28;20027;-92
2022/07/19 19:54:15;;;;;;;10.27;6.07;;;25.10;99.90;;;;;;4962408;28;20480;-92
2022/07/19 19:57:02;;;;;;;10.63;6.18;;;25.10;99.90;;;;;;4960422;28;20031;-91
2022/07/19 19:59:29;;;;;;;10.65;6.47;;;25.10;99.90;;;;;;4961282;28;20042;-92
2022/07/19 20:01:56;;;;;;;9.05;5.13;;;25.00;99.90;;;;;;4961219;28;20030;-91
2022/07/19 20:04:23;;;;;;;11.38;5.85;;;24.90;99.90;;;;;;4960864;28;20158;-93
2022/07/19 20:06:49;;;;;;;7.40;5.35;;;25.00;99.90;;;;;;4960879;28;20110;-92
2022/07/19 20:09:19;;;;;;;8.95;5.00;;;25.00;99.90;;;;;;4960565;28;20027;-92
2022/07/19 20:11:46;;;;;;;7.78;4.88;;;25.00;99.90;;;;;;4960377;28;20031;-91
2022/07/19 20:14:12;;;;;;;6.05;4.95;;;24.90;99.90;;;;;;4960284;28;20094;-91
2022/07/19 20:16:39;;;;;;;7.38;4.60;;;24.90;99.90;;;;;;4960631;28;20035;-91
2022/07/19 20:19:06;;;;;;;6.85;5.00;;;24.90;99.90;;;;;;4960275;28;20050;-93
2022/07/19 20:21:32;;;;;;;5.72;4.18;;;24.90;99.90;;;;;;4960273;28;20030;-93
2022/07/19 20:23:59;;;;;;;13.55;4.88;;;24.80;99.90;;;;;;4960767;28;20081;-93
2022/07/19 20:26:25;;;;;;;6.35;4.30;;;24.70;99.90;;;;;;4960111;28;20037;-94
2022/07/19 20:28:52;;;;;;;9.93;5.15;;;24.70;99.90;;;;;;4960174;28;20023;-92
2022/07/19 20:31:19;;;;;;;5.18;4.40;;;24.70;99.90;;;;;;4960476;28;20042;-94
2022/07/19 20:33:46;;;;;;;10.18;5.13;;;24.70;99.90;;;;;;4960137;28;20027;-92
2022/07/19 20:36:16;;;;;;;8.65;5.20;;;24.70;99.90;;;;;;4960160;28;20058;-91
2022/07/19 20:38:45;;;;;;;7.18;4.90;;;24.60;99.90;;;;;;4959904;28;20031;-92
2022/07/19 20:41:13;;;;;;;11.82;5.25;;;24.60;99.90;;;;;;4959987;28;20042;-92
2022/07/19 20:43:43;;;;;;;11.57;4.97;;;24.50;99.90;;;;;;4960064;28;20113;-91
2022/07/19 20:46:09;;;;;;;9.43;5.47;;;24.50;99.90;;;;;;4959911;28;20034;-91
2022/07/19 20:48:36;;;;;;;10.15;4.88;;;24.50;99.90;;;;;;4959924;28;20027;-91
2022/07/19 20:51:03;;;;;;;10.48;5.15;;;24.40;99.90;;;;;;4958772;28;20081;-92
2022/07/19 20:53:30;;;;;;;7.88;4.45;;;24.50;99.90;;;;;;4959647;28;20094;-92
2022/07/19 20:55:57;;;;;;;7.32;4.63;;;24.50;99.90;;;;;;4959794;28;20034;-92
2022/07/19 20:58:24;;;;;;;7.78;4.35;;;24.50;99.90;;;;;;4959447;28;20057;-94
2022/07/19 21:01:06;;;;;;;9.35;4.88;;;24.40;99.90;;;;;;4959995;28;20049;-91
2022/07/19 21:03:33;;;;;;;6.70;4.03;;;24.40;99.90;;;;;;4959721;28;20066;-92
2022/07/19 21:05:59;;;;;;;7.72;4.82;;;24.40;99.90;;;;;;4959696;28;20046;-91
2022/07/19 21:08:26;;;;;;;10.32;4.90;;;24.30;99.90;;;;;;4959433;28;20039;-91
2022/07/19 21:10:54;;;;;;;7.55;4.40;;;24.30;99.90;;;;;;4959856;28;20037;-93
2022/07/19 21:13:22;;;;;;;5.93;4.15;;;24.30;99.90;;;;;;4959459;28;20038;-91
2022/07/19 21:15:48;;;;;;;4.50;4.05;;;24.20;99.90;;;;;;4959383;28;20098;-92
2022/07/19 21:18:15;;;;;;;7.20;3.95;;;24.20;99.90;;;;;;4959448;28;20081;-94
2022/07/19 21:20:42;;;;;;;7.60;4.07;;;24.20;99.90;;;;;;4959221;28;20039;-94
2022/07/19 21:23:09;;;;;;;7.45;4.30;;;24.20;99.90;;;;;;4959378;28;20504;-95
2022/07/19 21:25:36;;;;;;;5.95;4.05;;;24.20;99.90;;;;;;4959106;28;20480;-91
2022/07/19 21:28:06;;;;;;;5.57;4.25;;;24.20;99.90;;;;;;4959261;28;20034;-94
2022/07/19 21:30:33;;;;;;;8.98;4.50;;;24.20;99.90;;;;;;4959209;28;20129;-94
2022/07/19 21:33:00;;;;;;;4.97;4.22;;;24.20;99.90;;;;;;4959329;28;20034;-91
2022/07/19 21:35:26;;;;;;;7.88;3.75;;;24.20;99.90;;;;;;4959349;28;20035;-91
2022/07/19 21:37:53;;;;;;;8.52;3.75;;;24.20;99.90;;;;;;4959130;28;20035;-93
2022/07/19 21:40:20;;;;;;;7.00;4.15;;;24.20;99.90;;;;;;4959762;28;20039;-92
2022/07/19 21:42:48;;;;;;;9.38;3.97;;;24.20;99.90;;;;;;4963768;28;20027;-91
2022/07/19 21:45:15;;;;;;;5.47;3.90;;;24.20;99.90;;;;;;4960291;28;20033;-92
2022/07/19 21:47:44;;;;;;;5.93;4.25;;;24.10;99.90;;;;;;4962618;28;20078;-94
2022/07/19 21:50:12;;;;;;;5.40;3.90;;;24.10;99.90;;;;;;4962318;28;20042;-94
2022/07/19 21:52:39;;;;;;;6.50;4.10;;;24.00;99.90;;;;;;4962540;28;20498;-93
2022/07/19 21:55:07;;;;;;;8.70;4.15;;;24.00;99.90;;;;;;4962143;28;20097;-91
2022/07/19 21:57:34;;;;;;;8.95;4.50;;;24.00;99.90;;;;;;4963963;28;20057;-92
2022/07/19 22:00:06;;;;;;;12.23;4.38;;;24.00;99.90;;;;;;4962620;28;20054;-92
2022/07/19 22:02:40;;;;;;;5.53;4.15;;;23.90;99.90;;;;;;4977842;28;20034;-91
2022/07/19 22:05:10;;;;;;;8.57;4.20;;;23.90;99.90;;;;;;4942626;29;20077;-94
2022/07/19 22:07:37;;;;;;;6.07;4.25;;;23.90;99.90;;;;;;4926001;29;20035;-93
2022/07/19 22:10:06;;;;;;;10.48;4.93;;;23.90;99.90;;;;;;4926715;29;20035;-92
2022/07/19 22:12:33;;;;;;;6.28;4.68;;;23.90;99.90;;;;;;4926669;29;20027;-92
2022/07/19 22:15:00;;;;;;;8.25;3.90;;;23.90;99.90;;;;;;4926688;29;20046;-94
2022/07/19 22:17:27;;;;;;;6.82;4.40;;;23.90;99.90;;;;;;4926050;29;20031;-93
2022/07/19 22:19:54;;;;;;;6.93;4.47;;;23.90;99.90;;;;;;4925130;29;20039;-91
2022/07/19 22:22:20;;;;;;;5.80;4.43;;;23.90;99.90;;;;;;4926595;29;20497;-93
2022/07/19 22:24:47;;;;;;;8.07;4.25;;;23.90;99.90;;;;;;4927114;29;20155;-95
2022/07/19 22:27:14;;;;;;;9.57;4.97;;;23.90;99.90;;;;;;4926183;29;20035;-93
2022/07/19 22:29:41;;;;;;;7.85;4.47;;;23.80;99.90;;;;;;4923005;29;20035;-91
2022/07/19 22:32:08;;;;;;;8.90;4.70;;;23.80;99.90;;;;;;4923076;29;20031;-91
2022/07/19 22:34:34;;;;;;;8.05;4.50;;;23.80;99.90;;;;;;4922742;29;20027;-94
2022/07/19 22:37:01;;;;;;;9.18;4.75;;;23.80;99.90;;;;;;4923280;29;20046;-92
2022/07/19 22:39:28;;;;;;;9.73;4.30;;;23.80;99.90;;;;;;4923731;29;20027;-93
2022/07/19 22:41:55;;;;;;;8.85;4.35;;;23.80;99.90;;;;;;4923647;29;20031;-93
2022/07/19 22:44:21;;;;;;;11.50;5.07;;;23.80;99.90;;;;;;4923385;29;20042;-93
2022/07/19 22:46:48;;;;;;;8.20;5.30;;;23.80;99.90;;;;;;4938841;29;20027;-94
2022/07/19 22:49:21;;;;;;;7.63;4.60;;;23.80;99.90;;;;;;4923001;29;20028;-92
2022/07/19 22:51:48;;;;;;;8.98;4.68;;;23.80;99.90;;;;;;4924045;29;20063;-93
2022/07/19 22:54:14;;;;;;;7.40;4.80;;;23.70;99.90;;;;;;4923793;29;20060;-94
2022/07/19 22:56:41;;;;;;;6.05;4.43;;;23.80;99.90;;;;;;4924605;29;20030;-92
2022/07/19 22:59:08;;;;;;;6.57;4.45;;;23.70;99.90;;;;;;4923506;29;20062;-93
2022/07/19 23:01:35;;;;;;;6.80;4.80;;;23.70;99.90;;;;;;4923371;29;20031;-92
2022/07/19 23:04:02;;;;;;;8.50;5.57;;;23.70;99.90;;;;;;4933244;28;20101;-92
2022/07/19 23:06:29;;;;;;;12.15;6.25;;;23.70;99.90;;;;;;4958068;28;20035;-93
2022/07/19 23:08:55;;;;;;;11.20;6.50;;;23.70;99.90;;;;;;4958256;28;20031;-93
2022/07/19 23:11:22;;;;;;;13.90;7.93;;;23.70;99.90;;;;;;4958229;28;20527;-93
2022/07/19 23:13:52;;;;;;;11.63;6.57;;;23.70;99.90;;;;;;4960471;28;20117;-92
2022/07/19 23:16:19;;;;;;;12.98;5.68;;;23.80;99.90;;;;;;4961797;28;20093;-91
2022/07/19 23:18:46;;;;;;;10.48;5.47;;;23.70;99.90;;;;;;4962364;28;20030;-91
2022/07/19 23:21:16;;;;;;;7.00;4.60;;;23.80;99.90;;;;;;4962799;28;20042;-92
2022/07/19 23:23:42;;;;;;;7.30;4.18;;;23.80;99.90;;;;;;4962967;28;20035;-93
2022/07/19 23:26:09;;;;;;;6.60;4.47;;;23.80;99.90;;;;;;4961936;28;20037;-92
2022/07/19 23:28:36;;;;;;;6.72;4.45;;;23.70;99.90;;;;;;4961902;28;20035;-92